Time;durP1;ratioP1;P1;durP2;ratioP2;P2;SDS_P1;SDS_P2;PMS_P1;PMS_P2;Temp;Humidity;BMP_temperature;BMP_pressure;BME280_temperature;BME280_humidity;BME280_pressure;Samples;Min_cycle;Max_cycle;Signal;HPM_P1;HPM_P2
2023/08/29 07:52:47;;;;;;;;;;;;;;;6.28;100.00;99155.53;5097198;23;19982;-81
2023/08/29 07:55:13;;;;;;;;;;;;;;;15.22;100.00;99154.03;5020872;28;19921;-84
2023/08/29 07:57:38;;;;;;;;;;;;;;;10.31;100.00;99138.97;5021950;28;20287;-81
2023/08/29 08:00:05;;;;;;;;;;;;;;;7.85;100.00;99151.31;5020068;28;19918;-81
2023/08/29 08:02:30;;;;;;;;;;;;;;;7.41;100.00;99154.84;5022500;28;19921;-81
2023/08/29 08:04:55;;;;;;;;;;;;;;;7.32;100.00;99156.97;5021937;28;19928;-81
2023/08/29 08:07:20;;;;;;;;;;;;;;;7.25;100.00;99161.63;5019370;28;20364;-83
2023/08/29 08:09:46;;;;;;;;;;;;;;;7.16;100.00;99154.94;5021228;28;19960;-84
2023/08/29 08:12:11;;;;;;;;;;;;;;;13.82;100.00;99156.53;5022044;28;19972;-82
2023/08/29 08:14:36;;;;;;;;;;;;;;;17.12;100.00;99132.56;5022785;28;20402;-88
2023/08/29 08:17:01;;;;;;;;;;;;;;;13.13;100.00;99127.25;5021447;28;19924;-85
2023/08/29 08:19:27;;;;;;;;;;;;;;;8.97;100.00;99152.63;5022291;28;19939;-81
2023/08/29 08:21:52;;;;;;;;;;;;;;;8.05;100.00;99161.00;5020868;28;19917;-82
2023/08/29 08:24:17;;;;;;;;;;;;;;;7.75;100.00;99165.78;5021785;28;20325;-82
2023/08/29 08:26:43;;;;;;;;;;;;;;;7.54;100.00;99168.38;5022612;28;19924;-84
2023/08/29 08:29:09;;;;;;;;;;;;;;;7.36;100.00;99167.34;5021583;28;19924;-81
2023/08/29 08:31:34;;;;;;;;;;;;;;;7.28;100.00;99166.78;5018367;28;19920;-85
2023/08/29 08:34:02;;;;;;;;;;;;;;;7.24;100.00;99170.44;5009491;28;19921;-82
2023/08/29 08:36:28;;;;;;;;;;;;;;;7.23;100.00;99179.28;5000474;28;19988;-81
2023/08/29 08:38:54;;;;;;;;;;;;;;;7.13;100.00;99176.13;5014052;28;20015;-81
2023/08/29 08:41:19;;;;;;;;;;;;;;;7.07;100.00;99171.13;5015987;28;20016;-85
2023/08/29 08:43:44;;;;;;;;;;;;;;;7.14;100.00;99177.00;5021383;28;19921;-85
2023/08/29 08:46:11;;;;;;;;;;;;;;;7.02;100.00;99179.19;5021366;28;20304;-81
2023/08/29 08:48:37;;;;;;;;;;;;;;;6.97;100.00;99170.59;5021757;28;20000;-83
2023/08/29 08:51:04;;;;;;;;;;;;;;;6.94;100.00;99168.09;5020590;28;20004;-87
2023/08/29 08:53:29;;;;;;;;;;;;;;;6.91;100.00;99165.56;5017464;28;19921;-83
2023/08/29 08:55:55;;;;;;;;;;;;;;;6.90;100.00;99167.34;5015477;28;19928;-83
2023/08/29 08:58:20;;;;;;;;;;;;;;;6.91;100.00;99176.97;5015278;28;20000;-85
2023/08/29 09:00:47;;;;;;;;;;;;;;;6.89;100.00;99170.03;5016498;28;20359;-82
2023/08/29 09:03:13;;;;;;;;;;;;;;;6.91;100.00;99170.84;5015419;28;20031;-84
2023/08/29 09:05:38;;;;;;;;;;;;;;;6.86;100.00;99168.38;5015697;28;19928;-83
2023/08/29 09:08:04;;;;;;;;;;;;;;;6.86;100.00;99163.13;5017551;28;19925;-84
2023/08/29 09:10:31;;;;;;;;;;;;;;;6.88;100.00;99168.31;5018487;28;19966;-84
2023/08/29 09:12:57;;;;;;;;;;;;;;;6.87;100.00;99163.97;5020777;28;19921;-86
2023/08/29 09:15:24;;;;;;;;;;;;;;;6.91;100.00;99165.56;5018148;28;19932;-85
2023/08/29 09:17:51;;;;;;;;;;;;;;;6.88;100.00;99165.69;5025048;28;20360;-85
2023/08/29 09:20:17;;;;;;;;;;;;;;;6.85;100.00;99165.81;5024802;28;19929;-86
2023/08/29 09:22:43;;;;;;;;;;;;;;;6.88;100.00;99168.31;5023224;28;19921;-84
2023/08/29 09:25:08;;;;;;;;;;;;;;;6.88;100.00;99168.31;5024388;28;20300;-84
2023/08/29 09:27:40;;;;;;;;;;;;;;;6.84;100.00;99162.28;5024379;28;20008;-87
2023/08/29 09:30:12;;;;;;;;;;;;;;;6.84;100.00;99171.97;5024852;28;19991;-86
2023/08/29 09:32:40;;;;;;;;;;;;;;;6.87;100.00;99175.34;5023354;28;19939;-86
2023/08/29 09:35:05;;;;;;;;;;;;;;;6.84;100.00;99171.97;5023883;28;20406;-82
2023/08/29 09:37:33;;;;;;;;;;;;;;;6.83;100.00;99172.88;5023460;28;19916;-84
2023/08/29 09:40:00;;;;;;;;;;;;;;;6.76;100.00;99174.88;5024389;28;19921;-85
2023/08/29 09:42:26;;;;;;;;;;;;;;;6.76;100.00;99171.41;5024342;28;19932;-85
2023/08/29 09:44:51;;;;;;;;;;;;;;;6.70;100.00;99164.56;5024548;28;20438;-85
2023/08/29 09:47:21;;;;;;;;;;;;;;;6.76;100.00;99169.63;5024505;28;20008;-84
2023/08/29 09:49:50;;;;;;;;;;;;;;;6.71;100.00;99164.53;5023902;28;19921;-83
2023/08/29 09:52:15;;;;;;;;;;;;;;;6.78;100.00;99169.56;5021870;28;19929;-84
2023/08/29 09:54:47;;;;;;;;;;;;;;;6.72;100.00;99166.25;5024211;28;19987;-85
2023/08/29 09:57:14;;;;;;;;;;;;;;;6.77;100.00;99165.25;5024116;28;19925;-84
2023/08/29 09:59:41;;;;;;;;;;;;;;;6.70;100.00;99162.81;5022920;28;20299;-83
2023/08/29 10:02:08;;;;;;;;;;;;;;;6.77;100.00;99162.59;5025219;28;20479;-85
2023/08/29 10:04:36;;;;;;;;;;;;;;;6.77;100.00;99157.34;5024360;28;19917;-84
2023/08/29 10:07:02;;;;;;;;;;;;;;;6.70;100.00;99162.81;5010086;28;20432;-81
2023/08/29 10:09:28;;;;;;;;;;;;;;;6.74;100.00;99163.56;5020445;28;20323;-84
2023/08/29 10:11:54;;;;;;;;;;;;;;;6.72;100.00;99160.97;5017321;28;20284;-84
2023/08/29 10:14:21;;;;;;;;;;;;;;;6.72;100.00;99154.88;5018974;28;19942;-83
2023/08/29 10:16:46;;;;;;;;;;;;;;;6.72;100.00;99163.63;5033689;28;20396;-82
2023/08/29 10:19:13;;;;;;;;;;;;;;;6.70;100.00;99157.56;5017170;28;19921;-84
2023/08/29 10:21:39;;;;;;;;;;;;;;;6.70;100.00;99157.56;5018695;28;19963;-84
2023/08/29 10:24:05;;;;;;;;;;;;;;;6.80;100.00;99154.59;5021500;28;20427;-85
2023/08/29 10:26:31;;;;;;;;;;;;;;;6.77;100.00;99157.34;5020964;28;19972;-86
2023/08/29 10:28:57;;;;;;;;;;;;;;;6.73;100.00;99156.56;5021329;28;20372;-85
2023/08/29 10:31:22;;;;;;;;;;;;;;;6.66;100.00;99152.47;5023574;28;20011;-85
2023/08/29 10:33:47;;;;;;;;;;;;;;;6.67;100.00;99148.91;5013449;28;19929;-81
2023/08/29 10:36:13;;;;;;;;;;;;;;;6.69;100.00;99145.31;5014539;28;19928;-85
2023/08/29 10:38:39;;;;;;;;;;;;;;;6.73;100.00;99151.31;5016421;28;19926;-82
2023/08/29 10:41:09;;;;;;;;;;;;;;;6.76;100.00;99145.94;5016511;28;19921;-85
2023/08/29 10:43:34;;;;;;;;;;;;;;;6.69;100.00;99139.19;5019624;28;19952;-82
2023/08/29 10:46:12;;;;;;;;;;;;;;;6.73;100.00;99138.13;5021903;28;20010;-83
2023/08/29 10:48:43;;;;;;;;;;;;;;;6.70;100.00;99136.50;5017844;28;19921;-82
2023/08/29 10:51:12;;;;;;;;;;;;;;;6.73;100.00;99131.13;5021566;28;19928;-84
2023/08/29 10:53:38;;;;;;;;;;;;;;;6.74;100.00;99126.69;5016028;28;19921;-85
2023/08/29 10:56:05;;;;;;;;;;;;;;;6.72;100.00;99133.81;5021771;28;19917;-86
2023/08/29 10:58:33;;;;;;;;;;;;;;;6.82;100.00;99122.00;5023876;28;20292;-85
2023/08/29 11:00:58;;;;;;;;;;;;;;;6.74;100.00;99126.69;5021585;28;19918;-84
2023/08/29 11:03:39;;;;;;;;;;;;;;;6.68;100.00;99119.88;5022796;28;19939;-85
2023/08/29 11:06:04;;;;;;;;;;;;;;;6.83;100.00;99130.75;5021387;28;19932;-82
2023/08/29 11:08:29;;;;;;;;;;;;;;;6.75;100.00;99124.91;5023414;28;19921;-86
2023/08/29 11:11:24;;;;;;;;;;;;;;;6.70;100.00;99125.97;5022908;28;19917;-85
2023/08/29 11:14:06;;;;;;;;;;;;;;;6.73;100.00;99123.22;5009140;28;19921;-81
2023/08/29 11:16:35;;;;;;;;;;;;;;;6.75;100.00;99124.91;5023061;28;19930;-83
2023/08/29 11:19:04;;;;;;;;;;;;;;;6.71;100.00;99126.81;5020501;28;19922;-83
2023/08/29 11:21:30;;;;;;;;;;;;;;;6.79;100.00;99124.75;5021697;28;19952;-84
2023/08/29 11:23:57;;;;;;;;;;;;;;;6.71;100.00;99116.28;5021375;28;20281;-87
2023/08/29 11:26:23;;;;;;;;;;;;;;;6.72;100.00;99118.84;5022781;28;19922;-87
2023/08/29 11:28:48;;;;;;;;;;;;;;;6.64;100.00;99120.06;5022554;28;19917;-84
2023/08/29 11:31:13;;;;;;;;;;;;;;;6.67;100.00;99112.91;5022615;28;19921;-85
2023/08/29 11:33:39;;;;;;;;;;;;;;;6.65;100.00;99112.13;5022142;28;20390;-83
2023/08/29 11:36:05;;;;;;;;;;;;;;;6.69;100.00;99110.22;5021032;28;19917;-86
2023/08/29 11:38:31;;;;;;;;;;;;;;;6.64;100.00;99105.13;5022108;28;20272;-82
2023/08/29 11:40:57;;;;;;;;;;;;;;;6.75;100.00;99106.47;5022131;28;19921;-85
2023/08/29 11:43:23;;;;;;;;;;;;;;;6.73;100.00;99104.78;5021532;28;19979;-87
2023/08/29 11:45:51;;;;;;;;;;;;;;;6.77;100.00;99105.53;5022382;28;19918;-86
2023/08/29 11:48:23;;;;;;;;;;;;;;;6.75;100.00;99093.31;5022029;28;20391;-85
2023/08/29 11:50:50;;;;;;;;;;;;;;;6.67;100.00;99110.28;5021066;28;19917;-86
2023/08/29 11:53:22;;;;;;;;;;;;;;;6.72;100.00;99096.94;5020811;28;19929;-86
2023/08/29 11:55:47;;;;;;;;;;;;;;;6.80;100.00;99107.19;5021695;28;19921;-83
2023/08/29 11:58:13;;;;;;;;;;;;;;;6.75;100.00;99101.22;5022786;28;19978;-87
2023/08/29 12:00:38;;;;;;;;;;;;;;;6.73;100.00;99102.16;5020976;28;19940;-81
2023/08/29 12:03:03;;;;;;;;;;;;;;;6.83;100.00;99094.75;5021932;28;19972;-81
2023/08/29 12:05:30;;;;;;;;;;;;;;;6.79;100.00;99093.16;5021147;28;19981;-83
2023/08/29 12:07:55;;;;;;;;;;;;;;;6.68;100.00;99100.59;5020991;28;19926;-82
2023/08/29 12:10:21;;;;;;;;;;;;;;;6.81;100.00;99095.72;5022063;28;19928;-81
2023/08/29 12:12:46;;;;;;;;;;;;;;;6.73;100.00;99091.63;5021755;28;20348;-84
2023/08/29 12:15:14;;;;;;;;;;;;;;;6.66;100.00;99087.50;5020634;28;19917;-81
2023/08/29 12:17:41;;;;;;;;;;;;;;;6.71;100.00;99082.06;5021946;28;19967;-80
2023/08/29 12:20:18;;;;;;;;;;;;;;;6.71;100.00;99085.53;5021148;28;20398;-84
2023/08/29 12:22:49;;;;;;;;;;;;;;;6.66;100.00;99084.88;5020942;28;20338;-85
2023/08/29 12:25:15;;;;;;;;;;;;;;;6.70;100.00;99077.69;5020264;28;19940;-85
2023/08/29 12:27:40;;;;;;;;;;;;;;;6.78;100.00;99074.78;5022137;28;20373;-82
2023/08/29 12:30:06;;;;;;;;;;;;;;;6.76;100.00;99071.34;5021513;28;19924;-85
2023/08/29 12:32:31;;;;;;;;;;;;;;;6.72;100.00;99075.88;5020921;28;19924;-86
2023/08/29 12:34:57;;;;;;;;;;;;;;;6.69;100.00;99068.09;5022233;28;20007;-84
2023/08/29 12:37:22;;;;;;;;;;;;;;;6.85;100.00;99065.72;5020555;28;19917;-79
2023/08/29 12:39:48;;;;;;;;;;;;;;;6.75;100.00;99070.50;5021661;28;20373;-83
2023/08/29 12:42:14;;;;;;;;;;;;;;;6.75;100.00;99053.81;5021534;28;19964;-84
2023/08/29 12:44:39;;;;;;;;;;;;;;;6.66;100.00;99058.53;5021909;28;19953;-85
2023/08/29 12:47:04;;;;;;;;;;;;;;;6.65;100.00;99061.22;5023941;28;20369;-85
2023/08/29 12:49:30;;;;;;;;;;;;;;;6.68;100.00;99058.47;5025497;28;19979;-84
2023/08/29 12:51:56;;;;;;;;;;;;;;;6.68;100.00;99056.69;5023646;28;20016;-82
2023/08/29 12:54:21;;;;;;;;;;;;;;;6.76;100.00;99064.31;5023853;28;19921;-81
2023/08/29 12:56:46;;;;;;;;;;;;;;;6.66;100.00;99065.59;5025799;28;19913;-85
2023/08/29 12:59:12;;;;;;;;;;;;;;;6.65;100.00;99064.72;5025342;28;19917;-81
2023/08/29 13:01:37;;;;;;;;;;;;;;;6.69;100.00;99063.69;5025063;28;19975;-83
2023/08/29 13:04:03;;;;;;;;;;;;;;;6.63;100.00;99066.53;5025607;28;20317;-81
2023/08/29 13:06:29;;;;;;;;;;;;;;;6.63;100.00;99063.91;5022562;28;19928;-85
2023/08/29 13:08:54;;;;;;;;;;;;;;;6.64;100.00;99068.28;5023653;28;19918;-84
2023/08/29 13:11:19;;;;;;;;;;;;;;;6.69;100.00;99068.94;5023354;28;20525;-82
2023/08/29 13:13:45;;;;;;;;;;;;;;;6.61;100.00;99067.53;5025784;28;19918;-86
2023/08/29 13:16:11;;;;;;;;;;;;;;;6.63;100.00;99066.53;5023516;28;19931;-86
2023/08/29 13:18:36;;;;;;;;;;;;;;;6.65;100.00;99064.72;5024512;28;19972;-86
2023/08/29 13:21:02;;;;;;;;;;;;;;;6.63;100.00;99063.91;5023737;28;19924;-87
2023/08/29 13:23:27;;;;;;;;;;;;;;;6.62;100.00;99061.34;5023222;28;20004;-86
2023/08/29 13:25:52;;;;;;;;;;;;;;;6.69;100.00;99058.41;5024541;28;19921;-86
2023/08/29 13:28:17;;;;;;;;;;;;;;;6.73;100.00;99067.94;5025007;28;19972;-86
2023/08/29 13:30:43;;;;;;;;;;;;;;;6.69;100.00;99058.41;5024988;28;19928;-86
2023/08/29 13:33:08;;;;;;;;;;;;;;;6.66;100.00;99063.81;5024812;28;19925;-87
2023/08/29 13:35:33;;;;;;;;;;;;;;;6.64;100.00;99057.75;5023173;28;19929;-87
2023/08/29 13:37:59;;;;;;;;;;;;;;;6.67;100.00;99065.53;5025273;28;19917;-85
2023/08/29 13:40:24;;;;;;;;;;;;;;;6.61;100.00;99057.00;5025070;28;19917;-83
2023/08/29 13:42:49;;;;;;;;;;;;;;;6.62;100.00;99054.31;5024366;28;19995;-84
2023/08/29 13:45:15;;;;;;;;;;;;;;;6.67;100.00;99064.66;5024567;28;19936;-81
2023/08/29 13:47:41;;;;;;;;;;;;;;;6.65;100.00;99054.22;5023223;28;20352;-82
2023/08/29 13:50:07;;;;;;;;;;;;;;;6.65;100.00;99053.31;5024285;28;19917;-83
2023/08/29 13:52:32;;;;;;;;;;;;;;;6.67;100.00;99048.84;5023227;28;20366;-80
2023/08/29 13:54:58;;;;;;;;;;;;;;;6.59;100.00;99051.81;5024201;28;20009;-82
2023/08/29 13:57:23;;;;;;;;;;;;;;;6.61;100.00;99052.59;5023289;28;19971;-83
2023/08/29 13:59:48;;;;;;;;;;;;;;;6.65;100.00;99043.69;5024222;28;19924;-83
2023/08/29 14:02:13;;;;;;;;;;;;;;;6.64;100.00;99046.38;5024523;28;19918;-85
2023/08/29 14:04:39;;;;;;;;;;;;;;;6.66;100.00;99045.38;5024036;28;20377;-81
2023/08/29 14:07:04;;;;;;;;;;;;;;;6.65;100.00;99043.69;5022354;28;19991;-85
2023/08/29 14:09:29;;;;;;;;;;;;;;;6.62;100.00;99042.91;5024140;28;19924;-84
2023/08/29 14:11:54;;;;;;;;;;;;;;;6.59;100.00;99038.66;5024160;28;19932;-81
2023/08/29 14:14:20;;;;;;;;;;;;;;;6.60;100.00;99037.69;5024031;28;19917;-79
2023/08/29 14:16:45;;;;;;;;;;;;;;;6.60;100.00;99044.75;5022347;28;19928;-80
2023/08/29 14:19:10;;;;;;;;;;;;;;;6.63;100.00;99040.22;5023998;28;19923;-82
2023/08/29 14:21:36;;;;;;;;;;;;;;;6.69;100.00;99042.63;5022495;28;19921;-82
2023/08/29 14:24:02;;;;;;;;;;;;;;;6.66;100.00;99042.75;5023588;28;19917;-80
2023/08/29 14:26:27;;;;;;;;;;;;;;;6.64;100.00;99041.94;5023806;28;19917;-80
2023/08/29 14:28:52;;;;;;;;;;;;;;;6.66;100.00;99040.09;5022481;28;19940;-82
2023/08/29 14:31:22;;;;;;;;;;;;;;;6.68;100.00;99040.03;5023053;28;20410;-84
2023/08/29 14:33:47;;;;;;;;;;;;;;;6.75;100.00;99041.53;5037971;28;19922;-82
2023/08/29 14:36:12;;;;;;;;;;;;;;;6.74;100.00;99045.06;5019443;28;19934;-85
2023/08/29 14:38:37;;;;;;;;;;;;;;;6.66;100.00;99048.00;5020168;28;20423;-85
2023/08/29 14:41:07;;;;;;;;;;;;;;;6.64;100.00;99047.22;5022136;28;20292;-84
2023/08/29 14:43:32;;;;;;;;;;;;;;;6.65;100.00;99043.69;5017975;28;19948;-84
2023/08/29 14:45:59;;;;;;;;;;;;;;;6.71;100.00;99043.41;5019025;28;19929;-81
2023/08/29 14:48:24;;;;;;;;;;;;;;;6.69;100.00;99036.50;5021150;28;19928;-81
2023/08/29 14:50:49;;;;;;;;;;;;;;;6.75;100.00;99040.66;5022142;28;19917;-85
2023/08/29 14:53:15;;;;;;;;;;;;;;;6.69;100.00;99036.50;5020827;28;19929;-81
2023/08/29 14:55:40;;;;;;;;;;;;;;;6.69;100.00;99044.41;5022737;28;20408;-82
2023/08/29 14:58:05;;;;;;;;;;;;;;;6.77;100.00;99036.22;5019131;28;20269;-83
2023/08/29 15:00:30;;;;;;;;;;;;;;;6.73;100.00;99046.88;5021062;28;19928;-85
2023/08/29 15:02:56;;;;;;;;;;;;;;;6.73;100.00;99046.88;5021517;28;20004;-84
2023/08/29 15:05:21;;;;;;;;;;;;;;;6.76;100.00;99050.28;5022489;28;19921;-84
2023/08/29 15:07:46;;;;;;;;;;;;;;;6.78;100.00;99048.44;5016707;28;20399;-85
2023/08/29 15:10:12;;;;;;;;;;;;;;;6.81;100.00;99050.97;5020173;28;19992;-86
2023/08/29 15:12:37;;;;;;;;;;;;;;;6.77;100.00;99047.59;5022788;28;20277;-81
2023/08/29 15:15:04;;;;;;;;;;;;;;;6.81;100.00;99046.56;5018392;28;19921;-81
2023/08/29 15:17:30;;;;;;;;;;;;;;;6.78;100.00;99037.91;5021586;28;19924;-84
2023/08/29 15:19:56;;;;;;;;;;;;;;;6.80;100.00;99051.91;5022110;28;19921;-86
2023/08/29 15:22:21;;;;;;;;;;;;;;;6.76;100.00;99045.88;5020023;28;20292;-83
2023/08/29 15:24:46;;;;;;;;;;;;;;;6.80;100.00;99051.91;5022510;28;19917;-82
2023/08/29 15:27:11;;;;;;;;;;;;;;;6.80;100.00;99060.66;5022466;28;19924;-82
2023/08/29 15:29:37;;;;;;;;;;;;;;;6.77;100.00;99057.28;5021186;28;20341;-83
2023/08/29 15:32:02;;;;;;;;;;;;;;;6.83;100.00;99051.75;5023041;28;20031;-83
2023/08/29 15:34:29;;;;;;;;;;;;;;;6.80;100.00;99041.38;5022178;28;19965;-82
2023/08/29 15:36:55;;;;;;;;;;;;;;;6.84;100.00;99050.84;5019540;28;20376;-83
2023/08/29 15:39:20;;;;;;;;;;;;;;;6.88;100.00;99045.41;5022579;28;20392;-83
2023/08/29 15:41:46;;;;;;;;;;;;;;;6.84;100.00;99048.22;5022161;28;19918;-83
2023/08/29 15:44:11;;;;;;;;;;;;;;;6.85;100.00;99049.94;5022103;28;20383;-82
2023/08/29 15:46:36;;;;;;;;;;;;;;;6.84;100.00;99053.47;5004192;28;19917;-81
2023/08/29 15:49:01;;;;;;;;;;;;;;;6.79;100.00;99048.38;5022323;28;19927;-81
2023/08/29 15:51:27;;;;;;;;;;;;;;;6.83;100.00;99049.13;5020788;28;20005;-81
2023/08/29 15:53:52;;;;;;;;;;;;;;;6.79;100.00;99045.75;5021752;28;19948;-80
2023/08/29 15:56:18;;;;;;;;;;;;;;;6.81;100.00;99050.97;5021993;28;19921;-82
2023/08/29 15:58:46;;;;;;;;;;;;;;;6.77;100.00;99054.66;5022069;28;19921;-86
2023/08/29 16:01:11;;;;;;;;;;;;;;;6.76;100.00;99052.91;5019693;28;19918;-80
2023/08/29 16:03:36;;;;;;;;;;;;;;;6.82;100.00;99055.31;5021807;28;19917;-81
2023/08/29 16:06:04;;;;;;;;;;;;;;;6.80;100.00;99051.91;5020829;28;19921;-83
2023/08/29 16:08:29;;;;;;;;;;;;;;;6.84;100.00;99048.22;5021578;28;19964;-81
2023/08/29 16:10:55;;;;;;;;;;;;;;;6.84;100.00;99041.16;5021985;28;19948;-81
2023/08/29 16:13:20;;;;;;;;;;;;;;;6.89;100.00;99043.59;5022133;28;20373;-81
2023/08/29 16:15:45;;;;;;;;;;;;;;;6.87;100.00;99041.03;5021908;28;20340;-81
2023/08/29 16:18:11;;;;;;;;;;;;;;;6.84;100.00;99046.41;5021741;28;19917;-84
2023/08/29 16:20:39;;;;;;;;;;;;;;;6.88;100.00;99052.44;5021690;28;19924;-81
2023/08/29 16:23:04;;;;;;;;;;;;;;;6.92;100.00;99051.38;5023582;28;20004;-80
2023/08/29 16:25:30;;;;;;;;;;;;;;;6.87;100.00;99054.19;5025496;28;20083;-83
2023/08/29 16:27:55;;;;;;;;;;;;;;;6.87;100.00;99050.72;5026051;28;20261;-82
2023/08/29 16:30:20;;;;;;;;;;;;;;;6.90;100.00;99053.25;5024536;28;20020;-82
2023/08/29 16:32:46;;;;;;;;;;;;;;;6.89;100.00;99051.50;5025487;28;19917;-82
2023/08/29 16:35:11;;;;;;;;;;;;;;;6.91;100.00;99055.81;5025443;28;19917;-87
2023/08/29 16:37:39;;;;;;;;;;;;;;;6.81;100.00;99057.09;5023221;28;19917;-85
2023/08/29 16:40:08;;;;;;;;;;;;;;;6.91;100.00;99050.53;5024880;28;20345;-83
2023/08/29 16:42:33;;;;;;;;;;;;;;;6.85;100.00;99049.94;5024088;28;19925;-86
2023/08/29 16:44:59;;;;;;;;;;;;;;;6.87;100.00;99053.34;5023969;28;19921;-84
2023/08/29 16:47:24;;;;;;;;;;;;;;;6.88;100.00;99039.28;5025832;28;19924;-82
2023/08/29 16:49:50;;;;;;;;;;;;;;;6.87;100.00;99048.94;5025194;28;19922;-83
2023/08/29 16:52:15;;;;;;;;;;;;;;;6.87;100.00;99053.34;5022220;28;20380;-81
2023/08/29 16:54:40;;;;;;;;;;;;;;;6.90;100.00;99048.81;5025327;28;19999;-84
2023/08/29 16:57:05;;;;;;;;;;;;;;;6.86;100.00;99049.00;5025784;28;19921;-86
2023/08/29 16:59:32;;;;;;;;;;;;;;;6.96;100.00;99055.63;5023862;28;19918;-83
2023/08/29 17:01:57;;;;;;;;;;;;;;;6.98;100.00;99055.56;5025089;28;19927;-86
2023/08/29 17:04:23;;;;;;;;;;;;;;;6.94;100.00;99059.22;5025118;28;20025;-87
2023/08/29 17:06:48;;;;;;;;;;;;;;;6.96;100.00;99058.25;5022611;28;19921;-85
2023/08/29 17:09:13;;;;;;;;;;;;;;;6.96;100.00;99055.63;5024813;28;19922;-85
2023/08/29 17:11:38;;;;;;;;;;;;;;;6.95;100.00;99061.81;5024559;28;19957;-83
2023/08/29 17:14:04;;;;;;;;;;;;;;;6.94;100.00;99062.75;5024007;28;20368;-83
2023/08/29 17:16:29;;;;;;;;;;;;;;;6.93;100.00;99063.66;5025144;28;20441;-81
2023/08/29 17:18:55;;;;;;;;;;;;;;;6.93;100.00;99063.66;5024494;28;20022;-83
2023/08/29 17:21:20;;;;;;;;;;;;;;;6.95;100.00;99064.44;5022101;28;19923;-82
2023/08/29 17:23:45;;;;;;;;;;;;;;;7.46;100.00;99067.66;5024922;28;20403;-82
2023/08/29 17:26:11;;;;;;;;;;;;;;;7.18;100.00;99065.28;5024632;28;20023;-82
2023/08/29 17:28:36;;;;;;;;;;;;;;;7.03;100.00;99065.00;5022933;28;20369;-80
2023/08/29 17:31:01;;;;;;;;;;;;;;;7.05;100.00;99057.91;5024379;28;20296;-83
2023/08/29 17:33:26;;;;;;;;;;;;;;;7.05;100.00;99064.94;5024251;28;20371;-82
2023/08/29 17:35:52;;;;;;;;;;;;;;;7.03;100.00;99057.09;5021024;28;19931;-85
2023/08/29 17:38:17;;;;;;;;;;;;;;;7.01;100.00;99050.19;5022368;28;20291;-81
2023/08/29 17:40:42;;;;;;;;;;;;;;;7.00;100.00;99057.22;5024560;28;20008;-83
2023/08/29 17:43:08;;;;;;;;;;;;;;;7.05;100.00;99062.28;5018767;28;19922;-86
2023/08/29 17:45:35;;;;;;;;;;;;;;;7.02;100.00;99071.19;5016381;28;19921;-82
2023/08/29 17:48:00;;;;;;;;;;;;;;;7.06;100.00;99069.28;5024383;28;19925;-83
2023/08/29 17:50:25;;;;;;;;;;;;;;;7.09;100.00;99077.91;5022924;28;19922;-84
2023/08/29 17:52:51;;;;;;;;;;;;;;;7.04;100.00;99081.66;5022678;28;19925;-83
2023/08/29 17:55:17;;;;;;;;;;;;;;;7.02;100.00;99094.03;5023949;28;19978;-81
2023/08/29 17:57:42;;;;;;;;;;;;;;;7.02;100.00;99100.16;5023904;28;19921;-83
2023/08/29 18:00:07;;;;;;;;;;;;;;;6.97;100.00;99096.84;5023800;28;19917;-85
2023/08/29 18:02:33;;;;;;;;;;;;;;;7.04;100.00;99100.97;5023738;28;19921;-83
2023/08/29 18:04:58;;;;;;;;;;;;;;;7.02;100.00;99104.56;5023815;28;19921;-83
2023/08/29 18:07:23;;;;;;;;;;;;;;;7.01;100.00;99093.19;5022761;28;19917;-82
2023/08/29 18:10:12;;;;;;;;;;;;;;;6.96;100.00;99095.13;5023484;28;19918;-83
2023/08/29 18:12:38;;;;;;;;;;;;;;;7.03;100.00;99096.59;5023748;28;20260;-83
2023/08/29 18:15:04;;;;;;;;;;;;;;;7.04;100.00;99102.75;5023605;28;20291;-80
2023/08/29 18:17:30;;;;;;;;;;;;;;;7.02;100.00;99105.44;5023638;28;20402;-81
2023/08/29 18:19:56;;;;;;;;;;;;;;;6.99;100.00;99108.19;5023341;28;20063;-80
2023/08/29 18:22:21;;;;;;;;;;;;;;;7.02;100.00;99104.56;5022803;28;19962;-80
2023/08/29 18:24:46;;;;;;;;;;;;;;;6.99;100.00;99105.56;5023096;28;19921;-82
2023/08/29 18:27:11;;;;;;;;;;;;;;;7.00;100.00;99109.03;5023798;28;20044;-81
2023/08/29 18:29:37;;;;;;;;;;;;;;;7.03;100.00;99107.13;5022930;28;19917;-81
2023/08/29 18:32:03;;;;;;;;;;;;;;;7.03;100.00;99116.81;5023308;28;19921;-80
2023/08/29 18:34:28;;;;;;;;;;;;;;;6.95;100.00;99109.22;5023183;28;19917;-81
2023/08/29 18:36:53;;;;;;;;;;;;;;;6.97;100.00;99119.69;5021811;28;19921;-83
2023/08/29 18:39:19;;;;;;;;;;;;;;;7.06;100.00;99121.97;5022938;28;19917;-82
2023/08/29 18:41:44;;;;;;;;;;;;;;;7.03;100.00;99125.56;5022659;28;19967;-81
2023/08/29 18:44:09;;;;;;;;;;;;;;;9.25;100.00;99118.69;5023082;28;20324;-82
2023/08/29 18:46:35;;;;;;;;;;;;;;;7.55;100.00;99119.16;5023179;28;20392;-80
2023/08/29 18:49:00;;;;;;;;;;;;;;;7.21;100.00;99131.91;5022858;28;19922;-80
2023/08/29 18:51:28;;;;;;;;;;;;;;;7.18;100.00;99126.78;5020458;28;20217;-81
2023/08/29 18:53:53;;;;;;;;;;;;;;;7.15;100.00;99120.75;5021720;28;19922;-83
2023/08/29 18:56:19;;;;;;;;;;;;;;;7.14;100.00;99124.31;5023186;28;19991;-81
2023/08/29 18:58:45;;;;;;;;;;;;;;;7.05;100.00;99131.66;5023031;28;19960;-80
2023/08/29 19:01:11;;;;;;;;;;;;;;;7.11;100.00;99132.34;5020877;28;19971;-80
2023/08/29 19:03:37;;;;;;;;;;;;;;;7.11;100.00;99137.59;5022648;28;19925;-80
2023/08/29 19:06:06;;;;;;;;;;;;;;;7.05;100.00;99144.84;5021458;28;19917;-80
2023/08/29 19:08:31;;;;;;;;;;;;;;;7.07;100.00;99145.63;5022245;28;19921;-82
2023/08/29 19:11:03;;;;;;;;;;;;;;;7.06;100.00;99145.69;5022148;28;19968;-80
2023/08/29 19:13:28;;;;;;;;;;;;;;;7.09;100.00;99143.78;5022847;28;19972;-82
2023/08/29 19:15:53;;;;;;;;;;;;;;;7.09;100.00;99145.56;5022239;28;19988;-84
2023/08/29 19:18:19;;;;;;;;;;;;;;;7.11;100.00;99145.50;5021046;28;19918;-84
2023/08/29 19:20:44;;;;;;;;;;;;;;;7.01;100.00;99145.00;5021254;28;20008;-88
2023/08/29 19:23:09;;;;;;;;;;;;;;;7.04;100.00;99135.22;5022650;28;19940;-81
2023/08/29 19:25:34;;;;;;;;;;;;;;;7.06;100.00;99145.69;5022112;28;19918;-81
2023/08/29 19:28:00;;;;;;;;;;;;;;;7.07;100.00;99136.88;5022150;28;19925;-83
2023/08/29 19:30:25;;;;;;;;;;;;;;;7.09;100.00;99138.50;5022537;28;19975;-82
2023/08/29 19:32:50;;;;;;;;;;;;;;;7.07;100.00;99136.88;5021289;28;20071;-80
2023/08/29 19:35:15;;;;;;;;;;;;;;;7.05;100.00;99130.78;5022104;28;19918;-85
2023/08/29 19:37:41;;;;;;;;;;;;;;;7.07;100.00;99132.44;5020628;28;19928;-83
2023/08/29 19:40:06;;;;;;;;;;;;;;;7.09;100.00;99127.13;5021239;28;19964;-82
2023/08/29 19:42:31;;;;;;;;;;;;;;;7.09;100.00;99133.25;5022384;28;19918;-81
2023/08/29 19:44:57;;;;;;;;;;;;;;;7.16;100.00;99127.75;5021517;28;19917;-83
2023/08/29 19:47:25;;;;;;;;;;;;;;;7.08;100.00;99136.81;5020484;28;20407;-81
2023/08/29 19:49:50;;;;;;;;;;;;;;;7.16;100.00;99138.28;5022548;28;20272;-82
2023/08/29 19:52:15;;;;;;;;;;;;;;;7.12;100.00;99131.44;5020327;28;19921;-81
2023/08/29 19:54:40;;;;;;;;;;;;;;;7.06;100.00;99133.38;5020023;28;20039;-80
2023/08/29 19:57:06;;;;;;;;;;;;;;;7.03;100.00;99135.25;5022266;28;19917;-80
2023/08/29 19:59:34;;;;;;;;;;;;;;;7.12;100.00;99131.44;5022045;28;19945;-84
2023/08/29 20:01:59;;;;;;;;;;;;;;;7.11;100.00;99127.06;5020823;28;19917;-81
2023/08/29 20:04:24;;;;;;;;;;;;;;;7.10;100.00;99136.75;5021803;28;19917;-80
2023/08/29 20:06:49;;;;;;;;;;;;;;;7.01;100.00;99134.47;5020821;28;20376;-82
2023/08/29 20:09:15;;;;;;;;;;;;;;;7.04;100.00;99135.22;5020363;28;19917;-82
2023/08/29 20:11:40;;;;;;;;;;;;;;;7.01;100.00;99140.59;5021435;28;19923;-86
2023/08/29 20:14:06;;;;;;;;;;;;;;;7.03;100.00;99133.47;5021642;28;19928;-82
2023/08/29 20:16:31;;;;;;;;;;;;;;;7.01;100.00;99135.31;5020779;28;19924;-82
2023/08/29 20:18:56;;;;;;;;;;;;;;;7.02;100.00;99136.16;5021562;28;20369;-85
2023/08/29 20:21:22;;;;;;;;;;;;;;;7.08;100.00;99123.66;5020107;28;20364;-85
2023/08/29 20:23:47;;;;;;;;;;;;;;;7.06;100.00;99125.47;5020640;28;19913;-82
2023/08/29 20:26:13;;;;;;;;;;;;;;;7.06;100.00;99116.72;5021856;28;20356;-81
2023/08/29 20:28:38;;;;;;;;;;;;;;;7.01;100.00;99122.16;5021562;28;19918;-83
2023/08/29 20:31:03;;;;;;;;;;;;;;;7.06;100.00;99116.72;5021219;28;19967;-83